METAR Data
IDs: Format: Raw Decoded Include TAF

Data at: 0351 UTC 24 Jun 2021

METAR for:KCMH (Columbus Intl, OH, US)
Text:KCMH 240251Z 15006KT 10SM SCT140 21/10 A3018 RMK AO2 SLP215 T02110100 51000
Temperature: 21.1°C ( 70°F)
Dewpoint: 10.0°C ( 50°F) [RH = 49%]
Pressure (altimeter):30.18 inches Hg (1022.1 mb) [Sea level pressure: 1021.5 mb]
Winds:from the SSE (150 degrees) at 7 MPH (6 knots; 3.1 m/s)
Visibility:10 or more sm (16+ km)
Ceiling:at least 12,000 feet AGL
Clouds: scattered clouds at 14000 feet AGL